sensor_id;sensor_type;location;lat;lon;timestamp;P1;durP1;ratioP1;P2;durP2;ratioP2
45466;SDS011;31212;49.734;8.490;2023-09-19T00:01:53;0.60;;;0.60;;
45466;SDS011;31212;49.734;8.490;2023-09-19T00:04:23;5.15;;;1.00;;
45466;SDS011;31212;49.734;8.490;2023-09-19T00:06:54;0.85;;;0.80;;
45466;SDS011;31212;49.734;8.490;2023-09-19T00:09:21;1.52;;;0.88;;
45466;SDS011;31212;49.734;8.490;2023-09-19T00:11:51;3.63;;;1.05;;
45466;SDS011;31212;49.734;8.490;2023-09-19T00:14:18;1.02;;;0.88;;
45466;SDS011;31212;49.734;8.490;2023-09-19T00:16:44;0.43;;;0.43;;
45466;SDS011;31212;49.734;8.490;2023-09-19T00:19:12;5.47;;;0.70;;
45466;SDS011;31212;49.734;8.490;2023-09-19T00:21:40;1.15;;;1.00;;
45466;SDS011;31212;49.734;8.490;2023-09-19T00:24:07;2.90;;;0.98;;
45466;SDS011;31212;49.734;8.490;2023-09-19T00:26:34;4.72;;;1.35;;
45466;SDS011;31212;49.734;8.490;2023-09-19T00:29:00;2.60;;;1.63;;
45466;SDS011;31212;49.734;8.490;2023-09-19T00:31:33;12.18;;;2.25;;
45466;SDS011;31212;49.734;8.490;2023-09-19T00:34:02;3.25;;;1.33;;
45466;SDS011;31212;49.734;8.490;2023-09-19T00:36:29;1.83;;;1.02;;
45466;SDS011;31212;49.734;8.490;2023-09-19T00:38:57;1.38;;;1.08;;
45466;SDS011;31212;49.734;8.490;2023-09-19T00:41:23;1.90;;;0.68;;
45466;SDS011;31212;49.734;8.490;2023-09-19T00:43:51;1.95;;;0.90;;
45466;SDS011;31212;49.734;8.490;2023-09-19T00:46:18;2.08;;;1.20;;
45466;SDS011;31212;49.734;8.490;2023-09-19T00:48:46;1.05;;;0.73;;
45466;SDS011;31212;49.734;8.490;2023-09-19T00:51:12;0.73;;;0.60;;
45466;SDS011;31212;49.734;8.490;2023-09-19T00:53:43;0.82;;;0.68;;
45466;SDS011;31212;49.734;8.490;2023-09-19T00:56:12;1.70;;;0.90;;
45466;SDS011;31212;49.734;8.490;2023-09-19T00:58:40;0.45;;;0.38;;
45466;SDS011;31212;49.734;8.490;2023-09-19T01:01:06;0.45;;;0.45;;
45466;SDS011;31212;49.734;8.490;2023-09-19T01:03:34;1.52;;;0.60;;
45466;SDS011;31212;49.734;8.490;2023-09-19T01:06:01;0.95;;;0.65;;
45466;SDS011;31212;49.734;8.490;2023-09-19T01:08:27;2.65;;;0.75;;
45466;SDS011;31212;49.734;8.490;2023-09-19T01:10:55;0.40;;;0.40;;
45466;SDS011;31212;49.734;8.490;2023-09-19T01:13:29;3.95;;;0.52;;
45466;SDS011;31212;49.734;8.490;2023-09-19T01:15:59;1.48;;;0.80;;
45466;SDS011;31212;49.734;8.490;2023-09-19T01:18:30;1.05;;;0.57;;
45466;SDS011;31212;49.734;8.490;2023-09-19T01:21:01;2.08;;;0.77;;
45466;SDS011;31212;49.734;8.490;2023-09-19T01:23:38;0.52;;;0.50;;
45466;SDS011;31212;49.734;8.490;2023-09-19T01:26:07;2.30;;;0.63;;
45466;SDS011;31212;49.734;8.490;2023-09-19T01:28:43;1.15;;;0.82;;
45466;SDS011;31212;49.734;8.490;2023-09-19T01:31:13;0.35;;;0.35;;
45466;SDS011;31212;49.734;8.490;2023-09-19T01:36:26;0.32;;;0.30;;
45466;SDS011;31212;49.734;8.490;2023-09-19T01:38:52;2.30;;;0.80;;
45466;SDS011;31212;49.734;8.490;2023-09-19T01:41:21;0.90;;;0.70;;
45466;SDS011;31212;49.734;8.490;2023-09-19T01:43:51;2.75;;;0.60;;
45466;SDS011;31212;49.734;8.490;2023-09-19T01:46:19;8.18;;;1.23;;
45466;SDS011;31212;49.734;8.490;2023-09-19T01:48:49;2.45;;;0.52;;
45466;SDS011;31212;49.734;8.490;2023-09-19T01:51:19;1.70;;;0.52;;
45466;SDS011;31212;49.734;8.490;2023-09-19T01:53:50;2.67;;;0.68;;
45466;SDS011;31212;49.734;8.490;2023-09-19T01:56:20;0.30;;;0.30;;
45466;SDS011;31212;49.734;8.490;2023-09-19T01:58:49;1.23;;;0.77;;
45466;SDS011;31212;49.734;8.490;2023-09-19T02:01:20;8.13;;;0.60;;
45466;SDS011;31212;49.734;8.490;2023-09-19T02:03:48;1.05;;;0.73;;
45466;SDS011;31212;49.734;8.490;2023-09-19T02:06:14;0.93;;;0.40;;
45466;SDS011;31212;49.734;8.490;2023-09-19T02:08:42;1.63;;;0.82;;
45466;SDS011;31212;49.734;8.490;2023-09-19T02:11:10;1.00;;;0.60;;
45466;SDS011;31212;49.734;8.490;2023-09-19T02:13:36;3.80;;;0.77;;
45466;SDS011;31212;49.734;8.490;2023-09-19T02:16:04;1.65;;;0.63;;
45466;SDS011;31212;49.734;8.490;2023-09-19T02:18:32;4.68;;;1.00;;
45466;SDS011;31212;49.734;8.490;2023-09-19T02:21:00;2.70;;;1.08;;
45466;SDS011;31212;49.734;8.490;2023-09-19T02:23:26;5.57;;;0.90;;
45466;SDS011;31212;49.734;8.490;2023-09-19T02:25:53;0.90;;;0.90;;
45466;SDS011;31212;49.734;8.490;2023-09-19T02:28:20;4.47;;;0.98;;
45466;SDS011;31212;49.734;8.490;2023-09-19T02:30:47;1.75;;;1.02;;
45466;SDS011;31212;49.734;8.490;2023-09-19T02:33:15;0.80;;;0.70;;
45466;SDS011;31212;49.734;8.490;2023-09-19T02:35:43;1.27;;;0.70;;
45466;SDS011;31212;49.734;8.490;2023-09-19T02:38:11;1.38;;;1.27;;
45466;SDS011;31212;49.734;8.490;2023-09-19T02:40:37;4.68;;;1.30;;
45466;SDS011;31212;49.734;8.490;2023-09-19T02:43:06;1.45;;;1.00;;
45466;SDS011;31212;49.734;8.490;2023-09-19T02:45:34;0.90;;;0.88;;
45466;SDS011;31212;49.734;8.490;2023-09-19T02:48:00;1.55;;;0.70;;
45466;SDS011;31212;49.734;8.490;2023-09-19T02:50:29;1.45;;;1.10;;
45466;SDS011;31212;49.734;8.490;2023-09-19T02:52:57;1.15;;;1.05;;
45466;SDS011;31212;49.734;8.490;2023-09-19T02:55:24;1.15;;;1.05;;
45466;SDS011;31212;49.734;8.490;2023-09-19T02:57:51;1.63;;;1.42;;
45466;SDS011;31212;49.734;8.490;2023-09-19T03:00:19;1.15;;;1.05;;
45466;SDS011;31212;49.734;8.490;2023-09-19T03:02:47;2.47;;;1.10;;
45466;SDS011;31212;49.734;8.490;2023-09-19T03:05:14;3.85;;;1.23;;
45466;SDS011;31212;49.734;8.490;2023-09-19T03:07:40;1.50;;;0.52;;
45466;SDS011;31212;49.734;8.490;2023-09-19T03:10:10;2.40;;;1.02;;
45466;SDS011;31212;49.734;8.490;2023-09-19T03:12:36;2.85;;;1.00;;
45466;SDS011;31212;49.734;8.490;2023-09-19T03:15:04;1.92;;;1.38;;
45466;SDS011;31212;49.734;8.490;2023-09-19T03:17:31;1.83;;;1.25;;
45466;SDS011;31212;49.734;8.490;2023-09-19T03:19:58;1.40;;;1.30;;
45466;SDS011;31212;49.734;8.490;2023-09-19T03:22:26;1.23;;;0.90;;
45466;SDS011;31212;49.734;8.490;2023-09-19T03:24:52;2.40;;;0.82;;
45466;SDS011;31212;49.734;8.490;2023-09-19T03:27:20;0.75;;;0.63;;
45466;SDS011;31212;49.734;8.490;2023-09-19T03:29:47;1.95;;;1.08;;
45466;SDS011;31212;49.734;8.490;2023-09-19T03:32:13;2.20;;;1.17;;
45466;SDS011;31212;49.734;8.490;2023-09-19T03:34:40;1.15;;;0.93;;
45466;SDS011;31212;49.734;8.490;2023-09-19T03:37:09;4.25;;;1.35;;
45466;SDS011;31212;49.734;8.490;2023-09-19T03:39:36;1.88;;;1.40;;
45466;SDS011;31212;49.734;8.490;2023-09-19T03:42:02;1.80;;;1.20;;
45466;SDS011;31212;49.734;8.490;2023-09-19T03:44:30;2.53;;;1.80;;
45466;SDS011;31212;49.734;8.490;2023-09-19T03:46:57;1.83;;;1.40;;
45466;SDS011;31212;49.734;8.490;2023-09-19T03:49:24;4.63;;;1.23;;
45466;SDS011;31212;49.734;8.490;2023-09-19T03:51:50;1.23;;;0.90;;
45466;SDS011;31212;49.734;8.490;2023-09-19T03:54:16;2.95;;;1.10;;
45466;SDS011;31212;49.734;8.490;2023-09-19T03:56:45;2.42;;;1.65;;
45466;SDS011;31212;49.734;8.490;2023-09-19T03:59:11;1.38;;;1.10;;
45466;SDS011;31212;49.734;8.490;2023-09-19T04:01:40;4.18;;;1.50;;
45466;SDS011;31212;49.734;8.490;2023-09-19T04:04:07;5.07;;;1.95;;
45466;SDS011;31212;49.734;8.490;2023-09-19T04:06:35;4.57;;;1.90;;
45466;SDS011;31212;49.734;8.490;2023-09-19T04:09:01;4.25;;;1.65;;
45466;SDS011;31212;49.734;8.490;2023-09-19T04:11:29;2.85;;;2.03;;
45466;SDS011;31212;49.734;8.490;2023-09-19T04:13:55;6.97;;;2.22;;
45466;SDS011;31212;49.734;8.490;2023-09-19T04:16:22;2.22;;;1.27;;
45466;SDS011;31212;49.734;8.490;2023-09-19T04:18:49;2.17;;;1.77;;
45466;SDS011;31212;49.734;8.490;2023-09-19T04:21:16;2.92;;;1.77;;
45466;SDS011;31212;49.734;8.490;2023-09-19T04:23:44;2.83;;;2.03;;
45466;SDS011;31212;49.734;8.490;2023-09-19T04:26:10;5.78;;;2.25;;
45466;SDS011;31212;49.734;8.490;2023-09-19T04:28:37;2.88;;;1.85;;
45466;SDS011;31212;49.734;8.490;2023-09-19T04:31:04;4.57;;;1.88;;
45466;SDS011;31212;49.734;8.490;2023-09-19T04:33:32;1.88;;;1.35;;
45466;SDS011;31212;49.734;8.490;2023-09-19T04:36:01;2.47;;;2.20;;
45466;SDS011;31212;49.734;8.490;2023-09-19T04:38:30;6.90;;;1.67;;
45466;SDS011;31212;49.734;8.490;2023-09-19T04:40:56;5.25;;;2.25;;
45466;SDS011;31212;49.734;8.490;2023-09-19T04:43:23;7.30;;;1.67;;
45466;SDS011;31212;49.734;8.490;2023-09-19T04:45:50;4.88;;;1.52;;
45466;SDS011;31212;49.734;8.490;2023-09-19T04:48:20;4.13;;;2.38;;
45466;SDS011;31212;49.734;8.490;2023-09-19T04:50:48;2.63;;;1.63;;
45466;SDS011;31212;49.734;8.490;2023-09-19T04:53:15;2.88;;;2.10;;
45466;SDS011;31212;49.734;8.490;2023-09-19T04:55:42;2.50;;;1.83;;
45466;SDS011;31212;49.734;8.490;2023-09-19T04:58:09;3.80;;;2.30;;
45466;SDS011;31212;49.734;8.490;2023-09-19T05:00:35;2.95;;;1.88;;
45466;SDS011;31212;49.734;8.490;2023-09-19T05:03:02;4.35;;;2.10;;
45466;SDS011;31212;49.734;8.490;2023-09-19T05:05:31;1.85;;;1.35;;
45466;SDS011;31212;49.734;8.490;2023-09-19T05:07:57;2.95;;;1.58;;
45466;SDS011;31212;49.734;8.490;2023-09-19T05:10:25;2.17;;;1.95;;
45466;SDS011;31212;49.734;8.490;2023-09-19T05:12:52;3.55;;;2.03;;
45466;SDS011;31212;49.734;8.490;2023-09-19T05:15:19;2.42;;;1.40;;
45466;SDS011;31212;49.734;8.490;2023-09-19T05:17:49;3.25;;;1.90;;
45466;SDS011;31212;49.734;8.490;2023-09-19T05:20:16;7.65;;;1.95;;
45466;SDS011;31212;49.734;8.490;2023-09-19T05:22:46;1.83;;;1.27;;
45466;SDS011;31212;49.734;8.490;2023-09-19T05:25:12;2.60;;;1.48;;
45466;SDS011;31212;49.734;8.490;2023-09-19T05:27:42;1.98;;;1.30;;
45466;SDS011;31212;49.734;8.490;2023-09-19T05:30:09;8.63;;;1.73;;
45466;SDS011;31212;49.734;8.490;2023-09-19T05:32:36;2.03;;;1.65;;
45466;SDS011;31212;49.734;8.490;2023-09-19T05:35:02;5.30;;;2.00;;
45466;SDS011;31212;49.734;8.490;2023-09-19T05:37:33;3.58;;;1.52;;
45466;SDS011;31212;49.734;8.490;2023-09-19T05:39:59;11.07;;;1.88;;
45466;SDS011;31212;49.734;8.490;2023-09-19T05:42:26;1.55;;;1.25;;
45466;SDS011;31212;49.734;8.490;2023-09-19T05:44:53;10.82;;;1.85;;
45466;SDS011;31212;49.734;8.490;2023-09-19T05:47:20;1.48;;;1.38;;
45466;SDS011;31212;49.734;8.490;2023-09-19T06:22:01;1.80;;;1.13;;
45466;SDS011;31212;49.734;8.490;2023-09-19T06:24:27;4.72;;;0.93;;
45466;SDS011;31212;49.734;8.490;2023-09-19T06:26:54;4.78;;;1.45;;
45466;SDS011;31212;49.734;8.490;2023-09-19T06:29:21;3.05;;;1.30;;
45466;SDS011;31212;49.734;8.490;2023-09-19T06:31:48;2.63;;;1.90;;
45466;SDS011;31212;49.734;8.490;2023-09-19T06:34:14;5.90;;;1.65;;
45466;SDS011;31212;49.734;8.490;2023-09-19T06:36:41;3.00;;;0.80;;
45466;SDS011;31212;49.734;8.490;2023-09-19T06:39:09;1.63;;;1.45;;
45466;SDS011;31212;49.734;8.490;2023-09-19T06:41:37;1.02;;;0.90;;
45466;SDS011;31212;49.734;8.490;2023-09-19T06:44:08;1.08;;;0.93;;
45466;SDS011;31212;49.734;8.490;2023-09-19T06:46:36;13.27;;;1.25;;
45466;SDS011;31212;49.734;8.490;2023-09-19T06:49:06;5.35;;;1.13;;
45466;SDS011;31212;49.734;8.490;2023-09-19T06:51:32;1.85;;;0.75;;
45466;SDS011;31212;49.734;8.490;2023-09-19T06:53:59;1.25;;;1.00;;
45466;SDS011;31212;49.734;8.490;2023-09-19T06:56:28;1.38;;;1.13;;
45466;SDS011;31212;49.734;8.490;2023-09-19T06:58:54;0.85;;;0.85;;
45466;SDS011;31212;49.734;8.490;2023-09-19T07:01:20;0.73;;;0.55;;
45466;SDS011;31212;49.734;8.490;2023-09-19T07:03:47;9.32;;;1.40;;
45466;SDS011;31212;49.734;8.490;2023-09-19T07:06:13;1.00;;;0.60;;
45466;SDS011;31212;49.734;8.490;2023-09-19T07:08:39;3.13;;;0.90;;
45466;SDS011;31212;49.734;8.490;2023-09-19T07:11:06;1.35;;;0.80;;
45466;SDS011;31212;49.734;8.490;2023-09-19T07:13:33;5.28;;;1.23;;
45466;SDS011;31212;49.734;8.490;2023-09-19T07:16:00;1.10;;;0.90;;
45466;SDS011;31212;49.734;8.490;2023-09-19T07:18:26;2.00;;;0.95;;
45466;SDS011;31212;49.734;8.490;2023-09-19T07:20:56;0.80;;;0.80;;
45466;SDS011;31212;49.734;8.490;2023-09-19T07:23:26;1.98;;;0.95;;
45466;SDS011;31212;49.734;8.490;2023-09-19T07:25:56;1.45;;;0.75;;
45466;SDS011;31212;49.734;8.490;2023-09-19T07:28:23;1.05;;;0.75;;
45466;SDS011;31212;49.734;8.490;2023-09-19T07:30:51;3.33;;;1.33;;
45466;SDS011;31212;49.734;8.490;2023-09-19T07:33:17;4.95;;;0.88;;
45466;SDS011;31212;49.734;8.490;2023-09-19T07:35:45;3.33;;;1.00;;
45466;SDS011;31212;49.734;8.490;2023-09-19T07:38:11;1.55;;;1.02;;
45466;SDS011;31212;49.734;8.490;2023-09-19T07:40:38;2.80;;;1.08;;
45466;SDS011;31212;49.734;8.490;2023-09-19T07:43:04;1.92;;;1.00;;
45466;SDS011;31212;49.734;8.490;2023-09-19T07:45:32;1.98;;;0.90;;
45466;SDS011;31212;49.734;8.490;2023-09-19T07:47:59;1.30;;;1.20;;
45466;SDS011;31212;49.734;8.490;2023-09-19T07:50:26;1.02;;;0.90;;
45466;SDS011;31212;49.734;8.490;2023-09-19T07:52:53;1.00;;;0.85;;
45466;SDS011;31212;49.734;8.490;2023-09-19T07:55:21;1.85;;;1.13;;
45466;SDS011;31212;49.734;8.490;2023-09-19T07:57:50;2.35;;;1.17;;
45466;SDS011;31212;49.734;8.490;2023-09-19T08:00:16;5.18;;;1.80;;
45466;SDS011;31212;49.734;8.490;2023-09-19T08:02:42;1.40;;;0.75;;
45466;SDS011;31212;49.734;8.490;2023-09-19T08:05:11;2.50;;;1.85;;
45466;SDS011;31212;49.734;8.490;2023-09-19T08:07:40;3.70;;;0.65;;
45466;SDS011;31212;49.734;8.490;2023-09-19T08:10:07;1.70;;;1.00;;
45466;SDS011;31212;49.734;8.490;2023-09-19T08:12:38;2.10;;;0.73;;
45466;SDS011;31212;49.734;8.490;2023-09-19T08:15:11;0.47;;;0.45;;
45466;SDS011;31212;49.734;8.490;2023-09-19T08:17:37;1.02;;;0.75;;
45466;SDS011;31212;49.734;8.490;2023-09-19T08:20:04;6.68;;;0.90;;
45466;SDS011;31212;49.734;8.490;2023-09-19T08:22:32;1.42;;;0.80;;
45466;SDS011;31212;49.734;8.490;2023-09-19T08:24:59;2.40;;;0.85;;
45466;SDS011;31212;49.734;8.490;2023-09-19T08:27:29;1.52;;;0.95;;
45466;SDS011;31212;49.734;8.490;2023-09-19T08:29:56;2.05;;;0.65;;
45466;SDS011;31212;49.734;8.490;2023-09-19T08:32:22;0.85;;;0.75;;
45466;SDS011;31212;49.734;8.490;2023-09-19T08:34:50;3.33;;;1.55;;
45466;SDS011;31212;49.734;8.490;2023-09-19T08:37:17;3.25;;;1.80;;
45466;SDS011;31212;49.734;8.490;2023-09-19T08:39:45;2.13;;;0.60;;
45466;SDS011;31212;49.734;8.490;2023-09-19T08:42:12;1.05;;;0.60;;
45466;SDS011;31212;49.734;8.490;2023-09-19T08:44:38;0.75;;;0.68;;
45466;SDS011;31212;49.734;8.490;2023-09-19T08:47:08;3.03;;;0.45;;
45466;SDS011;31212;49.734;8.490;2023-09-19T08:49:36;1.45;;;0.73;;
45466;SDS011;31212;49.734;8.490;2023-09-19T08:52:05;0.30;;;0.30;;
45466;SDS011;31212;49.734;8.490;2023-09-19T08:54:36;3.45;;;0.95;;
45466;SDS011;31212;49.734;8.490;2023-09-19T08:57:06;1.58;;;0.80;;
45466;SDS011;31212;49.734;8.490;2023-09-19T08:59:36;1.95;;;0.82;;
45466;SDS011;31212;49.734;8.490;2023-09-19T09:02:07;2.35;;;0.80;;
45466;SDS011;31212;49.734;8.490;2023-09-19T09:04:37;7.45;;;1.73;;
45466;SDS011;31212;49.734;8.490;2023-09-19T09:07:04;1.83;;;0.60;;
45466;SDS011;31212;49.734;8.490;2023-09-19T09:09:31;0.82;;;0.70;;
45466;SDS011;31212;49.734;8.490;2023-09-19T09:11:57;3.17;;;0.60;;
45466;SDS011;31212;49.734;8.490;2023-09-19T09:14:26;6.72;;;1.05;;
45466;SDS011;31212;49.734;8.490;2023-09-19T09:16:52;0.73;;;0.45;;
45466;SDS011;31212;49.734;8.490;2023-09-19T09:19:21;2.05;;;0.57;;
45466;SDS011;31212;49.734;8.490;2023-09-19T09:21:50;1.42;;;1.27;;
45466;SDS011;31212;49.734;8.490;2023-09-19T09:24:28;0.55;;;0.50;;
45466;SDS011;31212;49.734;8.490;2023-09-19T09:26:56;1.80;;;0.77;;
45466;SDS011;31212;49.734;8.490;2023-09-19T09:32:17;0.98;;;0.55;;
45466;SDS011;31212;49.734;8.490;2023-09-19T09:34:45;6.40;;;1.02;;
45466;SDS011;31212;49.734;8.490;2023-09-19T09:37:12;2.65;;;0.65;;
45466;SDS011;31212;49.734;8.490;2023-09-19T09:39:40;0.98;;;0.45;;
45466;SDS011;31212;49.734;8.490;2023-09-19T09:42:07;1.70;;;0.80;;
45466;SDS011;31212;49.734;8.490;2023-09-19T09:44:35;4.25;;;0.55;;
45466;SDS011;31212;49.734;8.490;2023-09-19T09:47:01;1.02;;;0.68;;
45466;SDS011;31212;49.734;8.490;2023-09-19T09:49:48;2.40;;;1.17;;
45466;SDS011;31212;49.734;8.490;2023-09-19T09:52:32;2.33;;;1.13;;
45466;SDS011;31212;49.734;8.490;2023-09-19T09:55:10;3.55;;;0.70;;
45466;SDS011;31212;49.734;8.490;2023-09-19T09:57:36;8.65;;;0.70;;
45466;SDS011;31212;49.734;8.490;2023-09-19T10:00:06;1.98;;;0.68;;
45466;SDS011;31212;49.734;8.490;2023-09-19T10:02:45;3.80;;;0.55;;
45466;SDS011;31212;49.734;8.490;2023-09-19T10:05:13;1.65;;;0.63;;
45466;SDS011;31212;49.734;8.490;2023-09-19T10:07:58;1.08;;;0.60;;
45466;SDS011;31212;49.734;8.490;2023-09-19T10:10:38;2.08;;;0.75;;
45466;SDS011;31212;49.734;8.490;2023-09-19T10:13:19;1.23;;;0.90;;
45466;SDS011;31212;49.734;8.490;2023-09-19T10:15:47;1.48;;;0.55;;
45466;SDS011;31212;49.734;8.490;2023-09-19T10:18:16;0.73;;;0.70;;
45466;SDS011;31212;49.734;8.490;2023-09-19T10:20:46;2.20;;;0.68;;
45466;SDS011;31212;49.734;8.490;2023-09-19T10:23:14;1.00;;;0.60;;
45466;SDS011;31212;49.734;8.490;2023-09-19T10:25:47;1.63;;;0.75;;
45466;SDS011;31212;49.734;8.490;2023-09-19T10:28:14;1.48;;;0.75;;
45466;SDS011;31212;49.734;8.490;2023-09-19T10:30:41;6.03;;;1.55;;
45466;SDS011;31212;49.734;8.490;2023-09-19T10:33:09;0.88;;;0.63;;
45466;SDS011;31212;49.734;8.490;2023-09-19T10:35:36;1.25;;;0.88;;
45466;SDS011;31212;49.734;8.490;2023-09-19T10:38:07;4.63;;;0.80;;
45466;SDS011;31212;49.734;8.490;2023-09-19T10:40:34;3.47;;;0.82;;
45466;SDS011;31212;49.734;8.490;2023-09-19T10:43:02;5.53;;;0.65;;
45466;SDS011;31212;49.734;8.490;2023-09-19T10:45:32;1.38;;;0.68;;
45466;SDS011;31212;49.734;8.490;2023-09-19T10:47:58;2.10;;;0.75;;
45466;SDS011;31212;49.734;8.490;2023-09-19T10:50:28;3.00;;;0.80;;
45466;SDS011;31212;49.734;8.490;2023-09-19T10:53:02;0.90;;;0.50;;
45466;SDS011;31212;49.734;8.490;2023-09-19T10:55:33;1.80;;;1.20;;
45466;SDS011;31212;49.734;8.490;2023-09-19T10:58:01;2.20;;;0.90;;
45466;SDS011;31212;49.734;8.490;2023-09-19T11:00:49;2.25;;;0.63;;
45466;SDS011;31212;49.734;8.490;2023-09-19T11:03:16;1.95;;;1.25;;
45466;SDS011;31212;49.734;8.490;2023-09-19T11:05:59;1.85;;;0.50;;
45466;SDS011;31212;49.734;8.490;2023-09-19T11:08:26;1.38;;;0.22;;
45466;SDS011;31212;49.734;8.490;2023-09-19T11:10:54;1.98;;;0.77;;
45466;SDS011;31212;49.734;8.490;2023-09-19T11:13:23;3.08;;;0.77;;
45466;SDS011;31212;49.734;8.490;2023-09-19T11:16:02;4.65;;;1.00;;
45466;SDS011;31212;49.734;8.490;2023-09-19T11:26:44;3.05;;;1.42;;
45466;SDS011;31212;49.734;8.490;2023-09-19T11:29:25;2.58;;;0.50;;
45466;SDS011;31212;49.734;8.490;2023-09-19T11:31:51;2.28;;;0.82;;
45466;SDS011;31212;49.734;8.490;2023-09-19T11:40:05;1.02;;;0.43;;
45466;SDS011;31212;49.734;8.490;2023-09-19T11:42:45;1.33;;;0.90;;
45466;SDS011;31212;49.734;8.490;2023-09-19T11:47:59;0.73;;;0.40;;
45466;SDS011;31212;49.734;8.490;2023-09-19T11:50:27;1.67;;;0.90;;
45466;SDS011;31212;49.734;8.490;2023-09-19T11:52:53;1.40;;;0.65;;
45466;SDS011;31212;49.734;8.490;2023-09-19T11:55:20;0.95;;;0.57;;
45466;SDS011;31212;49.734;8.490;2023-09-19T11:57:48;2.45;;;0.60;;
45466;SDS011;31212;49.734;8.490;2023-09-19T12:00:17;1.30;;;0.77;;
45466;SDS011;31212;49.734;8.490;2023-09-19T12:02:44;2.00;;;0.75;;
45466;SDS011;31212;49.734;8.490;2023-09-19T12:05:13;2.67;;;0.70;;
45466;SDS011;31212;49.734;8.490;2023-09-19T12:07:43;1.73;;;0.43;;
45466;SDS011;31212;49.734;8.490;2023-09-19T12:10:11;2.25;;;0.70;;
45466;SDS011;31212;49.734;8.490;2023-09-19T12:12:40;1.58;;;0.50;;
45466;SDS011;31212;49.734;8.490;2023-09-19T12:15:14;0.85;;;0.63;;
45466;SDS011;31212;49.734;8.490;2023-09-19T12:17:41;1.00;;;0.60;;
45466;SDS011;31212;49.734;8.490;2023-09-19T12:20:09;1.38;;;0.65;;
45466;SDS011;31212;49.734;8.490;2023-09-19T12:22:40;1.88;;;0.85;;
45466;SDS011;31212;49.734;8.490;2023-09-19T12:25:08;0.73;;;0.60;;
45466;SDS011;31212;49.734;8.490;2023-09-19T12:27:41;2.20;;;0.93;;
45466;SDS011;31212;49.734;8.490;2023-09-19T12:30:09;3.25;;;1.02;;
45466;SDS011;31212;49.734;8.490;2023-09-19T12:32:40;4.93;;;0.98;;
45466;SDS011;31212;49.734;8.490;2023-09-19T12:35:07;0.63;;;0.60;;
45466;SDS011;31212;49.734;8.490;2023-09-19T12:37:36;1.42;;;0.77;;
45466;SDS011;31212;49.734;8.490;2023-09-19T12:40:03;3.35;;;0.85;;
45466;SDS011;31212;49.734;8.490;2023-09-19T12:42:40;1.05;;;0.60;;
45466;SDS011;31212;49.734;8.490;2023-09-19T12:45:07;1.88;;;0.68;;
45466;SDS011;31212;49.734;8.490;2023-09-19T12:47:34;0.85;;;0.70;;
45466;SDS011;31212;49.734;8.490;2023-09-19T12:50:12;0.52;;;0.52;;
45466;SDS011;31212;49.734;8.490;2023-09-19T12:52:39;1.98;;;0.80;;
45466;SDS011;31212;49.734;8.490;2023-09-19T12:55:06;0.57;;;0.40;;
45466;SDS011;31212;49.734;8.490;2023-09-19T12:57:36;1.40;;;0.80;;
45466;SDS011;31212;49.734;8.490;2023-09-19T13:00:04;2.38;;;0.70;;
45466;SDS011;31212;49.734;8.490;2023-09-19T13:02:33;2.40;;;0.82;;
45466;SDS011;31212;49.734;8.490;2023-09-19T13:04:59;0.52;;;0.50;;
45466;SDS011;31212;49.734;8.490;2023-09-19T13:07:43;1.67;;;0.60;;
45466;SDS011;31212;49.734;8.490;2023-09-19T13:10:10;4.25;;;0.90;;
45466;SDS011;31212;49.734;8.490;2023-09-19T13:12:40;1.27;;;0.63;;
45466;SDS011;31212;49.734;8.490;2023-09-19T13:15:08;1.75;;;0.82;;
45466;SDS011;31212;49.734;8.490;2023-09-19T13:17:44;1.42;;;0.43;;
45466;SDS011;31212;49.734;8.490;2023-09-19T13:20:20;3.22;;;0.60;;
45466;SDS011;31212;49.734;8.490;2023-09-19T13:22:51;0.82;;;0.52;;
45466;SDS011;31212;49.734;8.490;2023-09-19T13:25:19;0.65;;;0.65;;
45466;SDS011;31212;49.734;8.490;2023-09-19T13:27:47;1.98;;;0.68;;
45466;SDS011;31212;49.734;8.490;2023-09-19T13:30:16;0.40;;;0.40;;
45466;SDS011;31212;49.734;8.490;2023-09-19T13:32:43;0.55;;;0.40;;
45466;SDS011;31212;49.734;8.490;2023-09-19T13:35:10;1.27;;;0.65;;
45466;SDS011;31212;49.734;8.490;2023-09-19T13:37:38;0.60;;;0.45;;
45466;SDS011;31212;49.734;8.490;2023-09-19T13:40:08;0.60;;;0.60;;
45466;SDS011;31212;49.734;8.490;2023-09-19T13:42:34;0.85;;;0.30;;
45466;SDS011;31212;49.734;8.490;2023-09-19T13:45:01;0.30;;;0.28;;
45466;SDS011;31212;49.734;8.490;2023-09-19T13:47:29;0.47;;;0.30;;
45466;SDS011;31212;49.734;8.490;2023-09-19T13:49:55;1.15;;;1.08;;
45466;SDS011;31212;49.734;8.490;2023-09-19T13:52:22;1.25;;;0.40;;
45466;SDS011;31212;49.734;8.490;2023-09-19T13:54:48;0.43;;;0.30;;
45466;SDS011;31212;49.734;8.490;2023-09-19T13:57:16;1.38;;;0.65;;
45466;SDS011;31212;49.734;8.490;2023-09-19T13:59:42;1.17;;;0.60;;
45466;SDS011;31212;49.734;8.490;2023-09-19T14:02:09;0.98;;;0.45;;
45466;SDS011;31212;49.734;8.490;2023-09-19T14:04:35;0.80;;;0.32;;
45466;SDS011;31212;49.734;8.490;2023-09-19T14:07:01;0.75;;;0.50;;
45466;SDS011;31212;49.734;8.490;2023-09-19T14:09:29;1.02;;;0.60;;
45466;SDS011;31212;49.734;8.490;2023-09-19T14:11:55;0.55;;;0.40;;
45466;SDS011;31212;49.734;8.490;2023-09-19T14:14:23;2.30;;;0.50;;
45466;SDS011;31212;49.734;8.490;2023-09-19T14:16:49;0.45;;;0.15;;
45466;SDS011;31212;49.734;8.490;2023-09-19T14:19:17;0.43;;;0.25;;
45466;SDS011;31212;49.734;8.490;2023-09-19T14:21:43;1.55;;;0.70;;
45466;SDS011;31212;49.734;8.490;2023-09-19T14:24:10;0.82;;;0.68;;
45466;SDS011;31212;49.734;8.490;2023-09-19T14:26:36;0.40;;;0.40;;
45466;SDS011;31212;49.734;8.490;2023-09-19T14:29:03;0.50;;;0.50;;
45466;SDS011;31212;49.734;8.490;2023-09-19T14:31:30;3.72;;;0.45;;
45466;SDS011;31212;49.734;8.490;2023-09-19T14:33:57;0.50;;;0.38;;
45466;SDS011;31212;49.734;8.490;2023-09-19T14:36:24;2.15;;;0.52;;
45466;SDS011;31212;49.734;8.490;2023-09-19T14:38:52;2.30;;;0.50;;
45466;SDS011;31212;49.734;8.490;2023-09-19T14:41:19;2.13;;;0.65;;
45466;SDS011;31212;49.734;8.490;2023-09-19T14:43:46;0.40;;;0.40;;
45466;SDS011;31212;49.734;8.490;2023-09-19T14:46:12;2.05;;;0.52;;
45466;SDS011;31212;49.734;8.490;2023-09-19T14:48:40;0.40;;;0.40;;
45466;SDS011;31212;49.734;8.490;2023-09-19T14:51:08;1.02;;;0.52;;
45466;SDS011;31212;49.734;8.490;2023-09-19T14:53:34;0.90;;;0.60;;
45466;SDS011;31212;49.734;8.490;2023-09-19T14:56:03;1.60;;;0.52;;
45466;SDS011;31212;49.734;8.490;2023-09-19T14:58:29;0.77;;;0.47;;
45466;SDS011;31212;49.734;8.490;2023-09-19T15:01:02;1.17;;;0.60;;
45466;SDS011;31212;49.734;8.490;2023-09-19T15:03:28;0.25;;;0.25;;
45466;SDS011;31212;49.734;8.490;2023-09-19T15:05:59;2.70;;;0.60;;
45466;SDS011;31212;49.734;8.490;2023-09-19T15:08:26;0.98;;;0.50;;
45466;SDS011;31212;49.734;8.490;2023-09-19T15:10:53;1.20;;;0.47;;
45466;SDS011;31212;49.734;8.490;2023-09-19T15:13:20;0.30;;;0.25;;
45466;SDS011;31212;49.734;8.490;2023-09-19T15:15:47;0.85;;;0.85;;
45466;SDS011;31212;49.734;8.490;2023-09-19T15:18:13;2.10;;;1.00;;
45466;SDS011;31212;49.734;8.490;2023-09-19T15:20:42;4.72;;;0.60;;
45466;SDS011;31212;49.734;8.490;2023-09-19T15:23:10;7.32;;;0.55;;
45466;SDS011;31212;49.734;8.490;2023-09-19T15:25:37;1.90;;;0.50;;
45466;SDS011;31212;49.734;8.490;2023-09-19T15:28:05;0.95;;;0.32;;
45466;SDS011;31212;49.734;8.490;2023-09-19T15:30:36;0.38;;;0.38;;
45466;SDS011;31212;49.734;8.490;2023-09-19T15:33:02;0.20;;;0.20;;
45466;SDS011;31212;49.734;8.490;2023-09-19T15:35:29;0.40;;;0.38;;
45466;SDS011;31212;49.734;8.490;2023-09-19T15:37:55;1.98;;;0.40;;
45466;SDS011;31212;49.734;8.490;2023-09-19T15:40:24;2.72;;;0.73;;
45466;SDS011;31212;49.734;8.490;2023-09-19T15:42:51;0.30;;;0.30;;
45466;SDS011;31212;49.734;8.490;2023-09-19T15:45:18;1.27;;;0.45;;
45466;SDS011;31212;49.734;8.490;2023-09-19T15:47:44;1.35;;;0.50;;
45466;SDS011;31212;49.734;8.490;2023-09-19T15:50:11;1.00;;;0.40;;